Terminal Aerodrome Forecast
Issued by NWS Chicago, IL

Home | Current Version | Previous Version | Graphics & Text | Print | Product List | Glossary On
Versions: 1 2 3 4 5 6 7 8 9 10 11 12 13 14 15 16 17 18 19 20 21 22 23 24
115
FTUS43 KLOT 190258 AAA
TAFRFD
TAF AMD
KRFD 190258Z 1903/1924 21009KT P6SM SCT250 WS020/22040KT
     FM190600 24005KT P6SM FEW250
     FM191200 29005KT P6SM FEW250
     FM191800 15005KT P6SM SCT250=

USA.gov is the U.S. government's official web portal to all federal, state and local government web resources and services.